F/V Oceanie — FVBW — position and weather

sailwx.info

Track history (hours):
 
Tides and Currents Weather Stations Pressure Air Temp Water Temp Dewpoint Dewpoint Depression Visibility Wind Speed Wind Dir Waves Ship Positions

F/V Oceanie

Last reported at 2015-Jan-26 01:33 UTC. Time now 2015-Jan-26 14:27 UTC.
Position N 47°33' W 003°22'.

Length 16 m.

Type: Fishing. MMSI: 228370000.

Date/timePositionNaut miles runAvg speedWind from/ knotsBaromVisibWave heightAir tempDewpointWater temp
2015-Jan-26 01:33N 47°33' W 003°22'8 8.5
2015-Jan-26 00:34N 47°41' W 003°22'3 0.1
2015-Jan-24 02:33N 47°44' W 003°22'0 0.0
2015-Jan-24 01:33N 47°44' W 003°22'7 6.9
2015-Jan-24 00:33N 47°37' W 003°22'4 0.1
2015-Jan-22 11:11N 47°33' W 003°22'5 8.6
2015-Jan-22 10:33N 47°38' W 003°23'5 5.4
2015-Jan-22 09:33N 47°44' W 003°22'0 0.1
2015-Jan-22 08:33N 47°44' W 003°22'2 1.7
2015-Jan-22 07:33N 47°42' W 003°22'13 0.6
2015-Jan-21 11:15N 47°30' W 003°27'2 2.9
2015-Jan-21 10:29N 47°30' W 003°24'1 0.2
2015-Jan-21 04:24N 47°30' W 003°23'7 8.6
2015-Jan-21 03:33N 47°37' W 003°23'6 6.4
2015-Jan-21 02:33N 47°44' W 003°22'0 0.0
2015-Jan-21 01:33N 47°44' W 003°22'3 3.4
2015-Jan-21 00:33N 47°40' W 003°22'9 9.2
2015-Jan-20 23:33N 47°31' W 003°22'2 0.0
2015-Jan-19 05:22N 47°33' W 003°23'8 9.5
2015-Jan-19 04:33N 47°40' W 003°22'3 3.3
2015-Jan-19 03:33N 47°44' W 003°22'0 0.0
2015-Jan-19 02:33N 47°44' W 003°22'0 0.0
2015-Jan-19 01:33N 47°44' W 003°22'7 7.0
2015-Jan-19 00:33N 47°37' W 003°22'12 0.4
2015-Jan-17 17:19N 47°25' W 003°16'2 2.2
2015-Jan-17 16:33N 47°26' W 003°18'3 3.0
2015-Jan-17 15:33N 47°25' W 003°23'2 2.4
2015-Jan-17 14:33N 47°25' W 003°19'3 0.5
2015-Jan-17 09:04N 47°25' W 003°15'1 0.3
2015-Jan-17 06:15N 47°25' W 003°16'3 2.8
2015-Jan-17 05:07N 47°25' W 003°21'3 5.0
2015-Jan-17 04:33N 47°28' W 003°23'9 9.1
2015-Jan-17 03:33N 47°37' W 003°23'7 6.9
2015-Jan-17 02:33N 47°44' W 003°22'3 3.3
2015-Jan-17 01:33N 47°40' W 003°22'8 7.8
2015-Jan-17 00:32N 47°33' W 003°23'8 0.5
2015-Jan-16 07:28N 47°24' W 003°20'2 0.7
2015-Jan-16 05:21N 47°25' W 003°22'2 2.8
2015-Jan-16 04:30N 47°27' W 003°22'1 0.6
2015-Jan-16 03:32N 47°27' W 003°22'5 5.4
2015-Jan-16 02:33N 47°32' W 003°22'8 8.1
2015-Jan-16 01:33N 47°40' W 003°22'  
Track history (hours):
 
Tides and Currents Weather Stations Pressure Air Temp Water Temp Dewpoint Dewpoint Depression Visibility Wind Speed Wind Dir Waves Ship Positions

F/V Oceanie

Last reported at 2015-Jan-26 01:33 UTC. Time now 2015-Jan-26 14:27 UTC.
Position N 47°33' W 003°22'.

Length 16 m.

Type: Fishing. MMSI: 228370000.

Date/timePositionNaut miles runAvg speedWind from/ knotsBaromVisibWave heightAir tempDewpointWater temp
2015-Jan-26 01:33N 47°33' W 003°22'8 8.5
2015-Jan-26 00:34N 47°41' W 003°22'3 0.1
2015-Jan-24 02:33N 47°44' W 003°22'0 0.0
2015-Jan-24 01:33N 47°44' W 003°22'7 6.9
2015-Jan-24 00:33N 47°37' W 003°22'4 0.1
2015-Jan-22 11:11N 47°33' W 003°22'5 8.6
2015-Jan-22 10:33N 47°38' W 003°23'5 5.4
2015-Jan-22 09:33N 47°44' W 003°22'0 0.1
2015-Jan-22 08:33N 47°44' W 003°22'2 1.7
2015-Jan-22 07:33N 47°42' W 003°22'13 0.6
2015-Jan-21 11:15N 47°30' W 003°27'2 2.9
2015-Jan-21 10:29N 47°30' W 003°24'1 0.2
2015-Jan-21 04:24N 47°30' W 003°23'7 8.6
2015-Jan-21 03:33N 47°37' W 003°23'6 6.4
2015-Jan-21 02:33N 47°44' W 003°22'0 0.0
2015-Jan-21 01:33N 47°44' W 003°22'3 3.4
2015-Jan-21 00:33N 47°40' W 003°22'9 9.2
2015-Jan-20 23:33N 47°31' W 003°22'2 0.0
2015-Jan-19 05:22N 47°33' W 003°23'8 9.5
2015-Jan-19 04:33N 47°40' W 003°22'3 3.3
2015-Jan-19 03:33N 47°44' W 003°22'0 0.0
2015-Jan-19 02:33N 47°44' W 003°22'0 0.0
2015-Jan-19 01:33N 47°44' W 003°22'7 7.0
2015-Jan-19 00:33N 47°37' W 003°22'12 0.4
2015-Jan-17 17:19N 47°25' W 003°16'2 2.2
2015-Jan-17 16:33N 47°26' W 003°18'3 3.0
2015-Jan-17 15:33N 47°25' W 003°23'2 2.4
2015-Jan-17 14:33N 47°25' W 003°19'3 0.5
2015-Jan-17 09:04N 47°25' W 003°15'1 0.3
2015-Jan-17 06:15N 47°25' W 003°16'3 2.8
2015-Jan-17 05:07N 47°25' W 003°21'3 5.0
2015-Jan-17 04:33N 47°28' W 003°23'9 9.1
2015-Jan-17 03:33N 47°37' W 003°23'7 6.9
2015-Jan-17 02:33N 47°44' W 003°22'3 3.3
2015-Jan-17 01:33N 47°40' W 003°22'8 7.8
2015-Jan-17 00:32N 47°33' W 003°23'8 0.5
2015-Jan-16 07:28N 47°24' W 003°20'2 0.7
2015-Jan-16 05:21N 47°25' W 003°22'2 2.8
2015-Jan-16 04:30N 47°27' W 003°22'1 0.6
2015-Jan-16 03:32N 47°27' W 003°22'5 5.4
2015-Jan-16 02:33N 47°32' W 003°22'8 8.1
2015-Jan-16 01:33N 47°40' W 003°22'  

Dump ship's entire track history